Time;durP1;ratioP1;P1;durP2;ratioP2;P2;SDS_P1;SDS_P2;PMS_P1;PMS_P2;Temp;Humidity;BMP_temperature;BMP_pressure;BME280_temperature;BME280_humidity;BME280_pressure;Samples;Min_cycle;Max_cycle;Signal;HPM_P1;HPM_P2
2022/10/05 00:01:00;;;;;;;11.40;6.90;;;15.00;99.90;;;;;;5083900;28;20036;-63
2022/10/05 00:03:37;;;;;;;9.05;6.03;;;15.00;99.90;;;;;;5056166;28;20086;-62
2022/10/05 00:06:03;;;;;;;10.93;6.57;;;15.00;99.90;;;;;;5076112;28;20405;-63
2022/10/05 00:08:32;;;;;;;11.55;6.90;;;15.00;99.90;;;;;;5055898;28;20044;-63
2022/10/05 00:10:58;;;;;;;12.63;6.85;;;15.00;99.90;;;;;;5071295;28;20124;-62
2022/10/05 00:13:29;;;;;;;10.85;6.40;;;15.00;99.90;;;;;;5066740;28;20087;-63
2022/10/05 00:16:08;;;;;;;9.75;6.40;;;15.00;99.90;;;;;;5086248;28;20463;-62
2022/10/05 00:18:33;;;;;;;11.93;6.38;;;14.90;99.90;;;;;;5084324;28;20045;-63
2022/10/05 00:20:59;;;;;;;14.32;6.88;;;15.00;99.90;;;;;;5086252;28;20639;-62
2022/10/05 00:23:30;;;;;;;10.18;6.85;;;14.90;99.90;;;;;;5083002;28;20035;-62
2022/10/05 00:26:12;;;;;;;12.63;7.28;;;15.00;99.90;;;;;;5051931;28;20131;-62
2022/10/05 00:28:39;;;;;;;11.02;7.03;;;15.00;99.90;;;;;;5083551;28;20089;-63
2022/10/05 00:31:14;;;;;;;9.55;6.70;;;15.00;99.90;;;;;;5087142;28;20115;-66
2022/10/05 00:33:39;;;;;;;12.68;6.72;;;15.00;99.90;;;;;;5067528;28;20123;-63
2022/10/05 00:36:06;;;;;;;14.23;6.38;;;15.00;99.90;;;;;;5084669;28;20138;-62
2022/10/05 00:38:31;;;;;;;11.43;6.32;;;15.00;99.90;;;;;;5066956;28;20048;-63
2022/10/05 00:41:15;;;;;;;9.25;5.97;;;15.00;99.90;;;;;;5065424;28;20039;-62
2022/10/05 00:44:06;;;;;;;11.63;6.32;;;15.00;99.90;;;;;;5079884;28;20543;-62
2022/10/05 00:47:04;;;;;;;11.20;6.20;;;15.00;99.90;;;;;;5088236;28;20060;-63
2022/10/05 00:49:47;;;;;;;8.82;6.00;;;15.00;99.90;;;;;;5080175;28;20055;-63
2022/10/05 00:52:39;;;;;;;10.43;6.03;;;14.90;99.90;;;;;;5064674;28;20452;-62
2022/10/05 00:55:43;;;;;;;11.10;6.47;;;14.90;99.90;;;;;;5087100;28;20040;-63
2022/10/05 00:58:19;;;;;;;9.73;5.72;;;14.90;99.90;;;;;;5059396;28;20048;-63
2022/10/05 01:01:07;;;;;;;10.18;6.13;;;15.00;99.90;;;;;;5082033;28;20044;-62
2022/10/05 01:04:19;;;;;;;10.40;5.93;;;15.00;99.90;;;;;;5085982;28;20052;-63
2022/10/05 01:07:11;;;;;;;8.45;4.90;;;15.00;99.90;;;;;;4976869;28;20162;-62
2022/10/05 01:09:58;;;;;;;8.65;5.20;;;15.00;99.90;;;;;;5051781;28;20063;-64
2022/10/05 01:13:03;;;;;;;9.98;5.32;;;15.00;99.90;;;;;;5081525;28;20448;-62
2022/10/05 01:15:32;;;;;;;8.18;5.35;;;15.00;99.90;;;;;;5088748;28;20048;-63
2022/10/05 01:18:30;;;;;;;10.02;5.50;;;15.00;99.90;;;;;;5071357;28;20396;-62
2022/10/05 01:21:19;;;;;;;6.97;5.40;;;15.00;99.90;;;;;;5077097;28;20048;-63
2022/10/05 01:23:47;;;;;;;8.07;5.72;;;15.00;99.90;;;;;;5086245;28;20062;-62
2022/10/05 01:26:55;;;;;;;10.02;5.60;;;15.00;99.90;;;;;;5067213;28;20052;-62
2022/10/05 01:29:35;;;;;;;8.73;6.05;;;15.00;99.90;;;;;;5037628;28;20044;-63
2022/10/05 01:32:38;;;;;;;7.57;5.50;;;15.00;99.90;;;;;;5086539;28;20032;-63
2022/10/05 01:35:41;;;;;;;9.50;6.07;;;15.00;99.90;;;;;;5079184;28;20137;-63
2022/10/05 01:38:13;;;;;;;10.02;6.10;;;14.90;99.90;;;;;;5033690;28;20068;-63
2022/10/05 01:40:52;;;;;;;12.77;7.00;;;14.90;99.90;;;;;;5061714;28;22239;-62
2022/10/05 01:43:45;;;;;;;10.50;5.95;;;14.90;99.90;;;;;;5065165;28;20536;-64
2022/10/05 01:46:24;;;;;;;9.35;6.40;;;14.90;99.90;;;;;;5084482;28;20040;-63
2022/10/05 01:49:07;;;;;;;12.43;6.80;;;14.90;99.90;;;;;;5086942;28;20097;-63
2022/10/05 01:51:54;;;;;;;9.40;6.35;;;14.90;99.90;;;;;;5078486;28;20048;-62
2022/10/05 01:54:58;;;;;;;11.30;6.22;;;14.90;99.90;;;;;;5065929;28;20032;-63
2022/10/05 01:57:38;;;;;;;13.02;6.72;;;14.90;99.90;;;;;;5065942;28;20060;-62
2022/10/05 02:00:18;;;;;;;11.38;6.20;;;14.90;99.90;;;;;;5071361;28;20040;-63
2022/10/05 02:03:00;;;;;;;;;;;14.80;99.90;;;;;;5078428;28;20479;-63
2022/10/05 02:05:58;;;;;;;8.80;5.65;;;14.80;99.90;;;;;;5064755;28;20328;-63
2022/10/05 02:08:45;;;;;;;10.57;6.10;;;14.80;99.90;;;;;;5071401;28;20050;-63
2022/10/05 02:11:13;;;;;;;10.93;7.30;;;14.80;99.90;;;;;;5068540;28;20452;-62
2022/10/05 02:13:43;;;;;;;15.35;6.38;;;14.80;99.90;;;;;;5085532;28;20052;-63
2022/10/05 02:16:30;;;;;;;11.10;6.93;;;14.80;99.90;;;;;;5084122;28;20550;-63
2022/10/05 02:19:07;;;;;;;15.63;7.25;;;14.80;99.90;;;;;;5051680;28;20154;-63
2022/10/05 02:21:35;;;;;;;12.63;7.03;;;14.80;99.90;;;;;;5079946;28;20036;-63
2022/10/05 02:24:07;;;;;;;13.30;8.23;;;14.70;99.90;;;;;;5087432;28;20337;-63
2022/10/05 02:26:35;;;;;;;12.68;7.15;;;14.70;99.90;;;;;;5082097;28;20055;-63
2022/10/05 02:29:11;;;;;;;11.85;7.72;;;14.70;99.90;;;;;;5070300;28;20052;-63
2022/10/05 02:32:01;;;;;;;13.95;8.02;;;14.60;99.90;;;;;;5087385;28;20043;-62
2022/10/05 02:34:39;;;;;;;15.48;7.85;;;14.60;99.90;;;;;;5083434;28;20184;-62
2022/10/05 02:37:53;;;;;;;11.82;8.15;;;14.60;99.90;;;;;;5075956;28;20040;-63
2022/10/05 02:40:33;;;;;;;12.88;7.65;;;14.60;99.90;;;;;;4971694;28;20224;-63
2022/10/05 02:43:19;;;;;;;11.45;7.47;;;14.60;99.90;;;;;;4976551;28;20104;-64
2022/10/05 02:45:56;;;;;;;14.63;7.70;;;14.50;99.90;;;;;;5059262;28;20048;-62
2022/10/05 02:48:28;;;;;;;14.25;7.85;;;14.50;99.90;;;;;;5090085;28;20178;-62
2022/10/05 02:51:32;;;;;;;13.18;7.50;;;14.50;99.90;;;;;;5088294;28;20139;-62
2022/10/05 02:54:16;;;;;;;13.43;7.80;;;14.50;99.90;;;;;;5084587;28;20056;-63
2022/10/05 02:56:57;;;;;;;12.98;8.20;;;14.40;99.90;;;;;;5083835;28;20142;-61
2022/10/05 02:59:30;;;;;;;10.88;7.30;;;14.50;99.90;;;;;;5069933;28;20074;-62
2022/10/05 03:02:11;;;;;;;16.08;7.60;;;14.40;99.90;;;;;;5081037;28;20059;-64
2022/10/05 03:04:42;;;;;;;;;;;14.40;99.90;;;;;;5067605;28;20051;-62
2022/10/05 03:07:14;;;;;;;12.13;7.15;;;14.40;99.90;;;;;;5057393;28;19920;-63
2022/10/05 03:10:08;;;;;;;13.27;7.60;;;14.50;99.90;;;;;;5068043;28;20048;-63
2022/10/05 03:12:45;;;;;;;12.55;7.70;;;14.50;99.90;;;;;;5084021;28;20201;-62
2022/10/05 03:15:32;;;;;;;11.90;7.20;;;14.40;99.90;;;;;;5089612;28;20040;-62
2022/10/05 03:18:12;;;;;;;9.43;6.82;;;14.50;99.90;;;;;;5091229;28;20237;-62
2022/10/05 03:21:01;;;;;;;12.88;7.43;;;14.50;99.90;;;;;;5085322;28;20146;-63
2022/10/05 03:24:06;;;;;;;10.75;6.95;;;14.50;99.90;;;;;;5081860;28;20031;-62
2022/10/05 03:27:26;;;;;;;12.45;7.30;;;14.50;99.90;;;;;;5088221;28;20071;-63
2022/10/05 03:29:57;;;;;;;;;;;14.50;99.90;;;;;;5048624;28;20135;-63
2022/10/05 03:32:29;;;;;;;;;;;14.50;99.90;;;;;;5087537;28;20438;-62
2022/10/05 03:35:02;;;;;;;16.10;7.55;;;14.50;99.90;;;;;;5068121;28;19920;-63
2022/10/05 03:37:49;;;;;;;11.52;6.90;;;14.50;99.90;;;;;;5066893;28;20040;-62
2022/10/05 03:40:36;;;;;;;13.15;6.60;;;14.50;99.90;;;;;;5064148;28;20075;-62
2022/10/05 03:43:38;;;;;;;11.65;7.32;;;14.50;99.90;;;;;;5061122;28;20047;-63
2022/10/05 03:46:10;;;;;;;10.32;7.10;;;14.60;99.90;;;;;;5064884;28;20072;-62
2022/10/05 03:49:08;;;;;;;12.18;6.72;;;14.60;99.90;;;;;;5086947;28;20051;-62
2022/10/05 03:51:38;;;;;;;13.10;7.47;;;14.60;99.90;;;;;;5073710;28;20134;-63
2022/10/05 03:54:28;;;;;;;11.45;6.63;;;14.60;99.90;;;;;;5067684;28;20044;-62
2022/10/05 03:57:17;;;;;;;10.32;6.38;;;14.50;99.90;;;;;;5063454;28;20052;-62
2022/10/05 04:00:03;;;;;;;10.05;6.53;;;14.50;99.90;;;;;;5085272;28;20048;-62
2022/10/05 04:02:40;;;;;;;11.57;7.07;;;14.50;99.90;;;;;;5087502;28;20032;-62
2022/10/05 04:05:29;;;;;;;17.15;7.10;;;14.50;99.90;;;;;;5085344;28;20062;-62
2022/10/05 04:08:09;;;;;;;10.70;6.32;;;14.40;99.90;;;;;;5061812;28;20620;-64
2022/10/05 04:10:50;;;;;;;11.82;6.82;;;14.40;99.90;;;;;;5059764;28;20088;-63
2022/10/05 04:13:25;;;;;;;;;;;14.40;99.90;;;;;;5070218;28;20036;-63
2022/10/05 04:16:11;;;;;;;10.10;6.72;;;14.40;99.90;;;;;;5055974;28;19931;-62
2022/10/05 04:18:42;;;;;;;12.25;7.10;;;14.40;99.90;;;;;;5081957;28;20138;-62
2022/10/05 04:21:27;;;;;;;14.07;6.93;;;14.30;99.90;;;;;;5063938;28;20052;-62
2022/10/05 04:24:16;;;;;;;11.70;6.72;;;14.40;99.90;;;;;;5080142;28;20051;-62
2022/10/05 04:26:50;;;;;;;13.93;7.60;;;14.40;99.90;;;;;;5079450;28;20120;-62
2022/10/05 04:29:42;;;;;;;12.05;6.90;;;14.40;99.90;;;;;;5082955;28;20138;-62
2022/10/05 04:32:35;;;;;;;12.80;7.80;;;14.40;99.90;;;;;;5085606;28;20563;-62
2022/10/05 04:35:57;;;;;;;11.23;7.95;;;14.40;99.90;;;;;;5063712;28;20044;-63
2022/10/05 04:38:40;;;;;;;12.98;7.82;;;14.40;99.90;;;;;;5000431;28;20388;-62
2022/10/05 04:41:12;;;;;;;13.13;8.18;;;14.40;99.90;;;;;;5079893;28;20171;-61
2022/10/05 04:43:53;;;;;;;12.65;7.63;;;14.30;99.90;;;;;;5081229;28;20101;-62
2022/10/05 04:46:40;;;;;;;11.93;7.80;;;14.30;99.90;;;;;;5085160;28;20040;-61
2022/10/05 04:49:17;;;;;;;11.07;7.22;;;14.30;99.90;;;;;;5082769;28;20062;-62
2022/10/05 04:51:52;;;;;;;15.40;7.95;;;14.30;99.90;;;;;;5083115;28;20119;-63
2022/10/05 04:54:58;;;;;;;13.30;8.25;;;14.30;99.90;;;;;;5081682;28;20036;-63
2022/10/05 04:57:36;;;;;;;13.73;7.80;;;14.30;99.90;;;;;;5065834;28;20432;-67
2022/10/05 05:00:05;;;;;;;15.13;8.27;;;14.30;99.90;;;;;;5084784;28;20083;-63
2022/10/05 05:03:02;;;;;;;13.70;8.07;;;14.20;99.90;;;;;;5050700;28;20099;-62
2022/10/05 05:05:40;;;;;;;12.40;7.95;;;14.30;99.90;;;;;;5074722;28;20123;-63
2022/10/05 05:08:27;;;;;;;11.57;7.75;;;14.30;99.90;;;;;;5068148;28;20036;-61
2022/10/05 05:11:03;;;;;;;12.68;8.43;;;14.20;99.90;;;;;;5073512;28;20075;-62
2022/10/05 05:14:12;;;;;;;13.05;7.95;;;14.30;99.90;;;;;;5081308;28;20070;-63
2022/10/05 05:16:43;;;;;;;12.02;7.72;;;14.20;99.90;;;;;;5088077;28;20047;-61
2022/10/05 05:19:37;;;;;;;16.20;8.48;;;14.20;99.90;;;;;;5066427;28;20241;-63
2022/10/05 05:22:48;;;;;;;14.38;8.30;;;14.20;99.90;;;;;;5086440;28;20040;-64
2022/10/05 05:25:55;;;;;;;13.85;8.43;;;14.20;99.90;;;;;;5070689;28;20052;-62
2022/10/05 05:28:32;;;;;;;13.10;8.38;;;14.20;99.90;;;;;;5085172;28;20032;-62
2022/10/05 05:31:08;;;;;;;16.00;9.80;;;14.10;99.90;;;;;;5091638;28;20036;-61
2022/10/05 05:34:00;;;;;;;16.83;9.32;;;14.20;99.90;;;;;;5090057;28;20040;-63
2022/10/05 05:37:10;;;;;;;17.23;9.50;;;14.20;99.90;;;;;;5068039;28;20390;-64
2022/10/05 05:40:00;;;;;;;14.63;9.73;;;14.20;99.90;;;;;;5042333;28;20506;-62
2022/10/05 05:42:55;;;;;;;16.35;9.52;;;14.10;99.90;;;;;;5083978;28;20040;-63
2022/10/05 05:45:40;;;;;;;15.32;9.00;;;14.10;99.90;;;;;;5070699;28;20140;-63
2022/10/05 05:48:23;;;;;;;14.48;8.77;;;14.10;99.90;;;;;;5090327;28;20047;-62
2022/10/05 05:51:12;;;;;;;15.57;10.02;;;14.10;99.90;;;;;;5074932;28;20032;-62
2022/10/05 05:53:48;;;;;;;13.93;8.98;;;14.10;99.90;;;;;;5085060;28;20146;-62
2022/10/05 05:56:18;;;;;;;18.75;10.07;;;14.00;99.90;;;;;;5071110;28;20064;-63
2022/10/05 05:58:55;;;;;;;17.37;9.60;;;14.10;99.90;;;;;;5059896;28;20055;-62
2022/10/05 06:01:31;;;;;;;17.48;9.50;;;14.10;99.90;;;;;;5088877;28;20040;-63
2022/10/05 06:04:18;;;;;;;16.98;9.88;;;14.10;99.90;;;;;;5082855;28;20131;-62
2022/10/05 06:06:50;;;;;;;17.35;9.57;;;14.10;99.90;;;;;;5080602;28;20176;-63
2022/10/05 06:09:25;;;;;;;16.77;10.48;;;14.10;99.90;;;;;;5077976;28;20035;-62
2022/10/05 06:11:59;;;;;;;14.63;9.32;;;14.10;99.90;;;;;;5076900;28;20147;-63
2022/10/05 06:14:34;;;;;;;15.90;8.77;;;14.10;99.90;;;;;;5066811;28;20047;-63
2022/10/05 06:17:14;;;;;;;16.75;10.05;;;14.20;99.90;;;;;;5082610;28;20126;-62
2022/10/05 06:19:42;;;;;;;16.23;9.15;;;14.20;99.90;;;;;;5081132;28;20036;-63
2022/10/05 06:22:23;;;;;;;14.77;9.32;;;14.20;99.90;;;;;;5077423;28;20055;-63
2022/10/05 06:24:56;;;;;;;;;;;14.20;99.90;;;;;;5061863;28;20048;-63
2022/10/05 06:28:19;;;;;;;19.02;9.40;;;14.20;99.90;;;;;;5079198;28;20638;-61
2022/10/05 06:30:48;;;;;;;14.95;9.40;;;14.20;99.90;;;;;;4984790;28;20493;-62
2022/10/05 06:33:30;;;;;;;16.85;9.98;;;14.20;99.90;;;;;;5001688;28;20057;-63
2022/10/05 06:36:22;;;;;;;16.02;10.10;;;14.20;99.90;;;;;;5055098;28;20044;-63
2022/10/05 06:39:01;;;;;;;16.75;10.73;;;14.20;99.90;;;;;;5085401;28;20047;-63
2022/10/05 06:41:38;;;;;;;15.73;9.70;;;14.20;99.90;;;;;;5079038;28;20037;-63
2022/10/05 06:44:10;;;;;;;19.05;10.13;;;14.30;99.90;;;;;;5059125;28;20075;-63
2022/10/05 06:46:45;;;;;;;15.95;10.57;;;14.20;99.90;;;;;;5083448;28;20466;-61
2022/10/05 06:49:20;;;;;;;15.70;10.10;;;14.30;99.90;;;;;;5081536;28;20035;-63
2022/10/05 06:52:07;;;;;;;19.05;10.85;;;14.30;99.90;;;;;;5082906;28;20044;-63
2022/10/05 06:55:22;;;;;;;15.50;9.88;;;14.30;99.90;;;;;;5077377;28;20034;-62
2022/10/05 06:57:53;;;;;;;16.33;10.52;;;14.30;99.90;;;;;;5001064;28;20866;-62
2022/10/05 07:00:20;;;;;;;14.98;10.27;;;14.40;99.90;;;;;;5078402;28;20525;-62
2022/10/05 07:03:07;;;;;;;16.60;9.75;;;14.40;99.90;;;;;;5060506;28;20050;-61
2022/10/05 07:06:04;;;;;;;15.85;10.05;;;14.40;99.90;;;;;;5064056;28;20509;-62
2022/10/05 07:08:43;;;;;;;16.67;9.88;;;14.40;99.90;;;;;;5084419;28;20043;-62
2022/10/05 07:11:20;;;;;;;17.67;9.82;;;14.40;99.90;;;;;;5086430;28;20067;-63
2022/10/05 07:14:23;;;;;;;15.60;10.05;;;14.40;99.90;;;;;;5075731;28;20036;-64
2022/10/05 07:17:07;;;;;;;16.35;10.02;;;14.40;99.90;;;;;;5080616;28;20051;-62
2022/10/05 07:20:00;;;;;;;15.68;10.65;;;14.40;99.90;;;;;;5083733;28;20116;-63
2022/10/05 07:22:31;;;;;;;18.30;10.18;;;14.40;99.90;;;;;;5085961;28;20036;-64
2022/10/05 07:25:08;;;;;;;16.23;10.00;;;14.40;99.90;;;;;;5075277;28;20037;-63
2022/10/05 07:27:45;;;;;;;14.43;9.30;;;14.50;99.90;;;;;;5061646;28;20044;-62
2022/10/05 07:30:13;;;;;;;18.08;10.23;;;14.50;99.90;;;;;;5084154;28;20048;-63
2022/10/05 07:32:55;;;;;;;14.95;9.63;;;14.50;99.90;;;;;;5077343;28;20043;-62
2022/10/05 07:38:47;;;;;;;13.80;9.23;;;14.60;99.90;;;;;;5077887;28;20044;-62
2022/10/05 07:41:29;;;;;;;15.25;9.75;;;14.70;99.90;;;;;;5075228;28;20686;-63
2022/10/05 07:44:17;;;;;;;14.35;9.32;;;14.70;99.90;;;;;;5083957;28;20058;-61
2022/10/05 07:47:01;;;;;;;13.73;9.27;;;14.70;99.90;;;;;;5080407;28;20044;-63
2022/10/05 07:49:46;;;;;;;13.43;9.35;;;14.80;99.90;;;;;;5088981;28;20071;-62
2022/10/05 07:52:40;;;;;;;12.63;8.65;;;14.90;99.90;;;;;;5084790;28;20068;-63
2022/10/05 07:55:21;;;;;;;12.45;8.70;;;14.90;99.90;;;;;;5077710;28;20051;-63
2022/10/05 07:57:52;;;;;;;10.77;8.25;;;14.90;99.90;;;;;;5060059;28;20060;-62
2022/10/05 08:00:23;;;;;;;15.30;9.15;;;14.90;99.90;;;;;;5055047;28;20048;-63
2022/10/05 08:03:09;;;;;;;12.48;7.70;;;14.90;99.90;;;;;;5059797;28;20052;-62
2022/10/05 08:05:40;;;;;;;12.02;8.10;;;15.00;99.90;;;;;;5085044;28;20066;-62
2022/10/05 08:08:24;;;;;;;;;;;15.00;99.90;;;;;;5069445;28;20065;-62
2022/10/05 08:11:01;;;;;;;11.50;8.38;;;15.00;99.90;;;;;;5080319;28;19927;-64
2022/10/05 08:13:40;;;;;;;13.20;8.23;;;15.00;99.90;;;;;;5084665;28;20113;-63
2022/10/05 08:16:11;;;;;;;11.05;8.45;;;15.10;99.90;;;;;;5070247;28;20182;-62
2022/10/05 08:18:48;;;;;;;12.00;7.93;;;15.20;99.90;;;;;;5079210;28;20086;-62
2022/10/05 08:21:18;;;;;;;13.82;8.27;;;15.30;99.90;;;;;;5070500;28;20045;-63
2022/10/05 08:24:14;;;;;;;11.30;7.43;;;15.40;99.90;;;;;;5077230;28;20044;-62
2022/10/05 08:26:50;;;;;;;12.73;8.38;;;15.50;99.90;;;;;;5050929;28;20633;-63
2022/10/05 08:29:16;;;;;;;13.07;8.30;;;15.60;99.90;;;;;;5067272;28;20040;-63
2022/10/05 08:31:47;;;;;;;13.95;8.40;;;15.60;99.90;;;;;;5078478;28;20093;-62
2022/10/05 08:34:33;;;;;;;10.02;7.40;;;15.60;99.90;;;;;;5078450;28;20694;-62
2022/10/05 08:37:29;;;;;;;10.27;7.30;;;15.70;99.90;;;;;;5082206;28;20082;-64
2022/10/05 08:40:32;;;;;;;11.65;7.43;;;15.70;99.90;;;;;;5073262;28;20726;-62
2022/10/05 08:43:22;;;;;;;11.18;7.60;;;15.80;99.90;;;;;;5056184;28;20040;-63
2022/10/05 08:46:12;;;;;;;8.97;6.77;;;15.90;99.90;;;;;;5084004;28;20123;-63
2022/10/05 08:48:56;;;;;;;9.07;6.80;;;16.00;99.90;;;;;;5083138;28;20333;-62
2022/10/05 08:51:36;;;;;;;10.25;7.28;;;16.00;99.90;;;;;;5062183;28;20040;-62
2022/10/05 08:54:17;;;;;;;11.32;7.13;;;16.00;99.90;;;;;;5080066;28;20035;-62
2022/10/05 08:57:13;;;;;;;10.80;5.90;;;16.10;99.90;;;;;;5047166;28;20063;-63
2022/10/05 08:59:42;;;;;;;11.23;6.68;;;16.20;99.90;;;;;;5060272;28;20044;-62
2022/10/05 09:02:13;;;;;;;9.68;7.15;;;16.20;99.90;;;;;;5065312;28;20044;-62
2022/10/05 09:04:56;;;;;;;8.40;6.30;;;16.20;99.90;;;;;;5063621;28;20091;-62
2022/10/05 09:07:37;;;;;;;9.07;6.97;;;16.30;99.90;;;;;;5059485;28;20127;-62
2022/10/05 09:10:32;;;;;;;10.27;6.63;;;16.40;99.90;;;;;;5066731;28;20059;-62
2022/10/05 09:13:26;;;;;;;8.50;6.30;;;16.40;99.90;;;;;;5045373;28;20118;-62
2022/10/05 09:16:20;;;;;;;8.70;5.90;;;16.40;99.90;;;;;;5064377;28;20036;-63
2022/10/05 09:18:51;;;;;;;8.98;6.18;;;16.60;99.90;;;;;;5054225;28;20128;-63
2022/10/05 09:21:32;;;;;;;8.77;6.15;;;16.60;99.90;;;;;;5055101;28;20056;-63
2022/10/05 09:24:09;;;;;;;9.00;6.50;;;16.60;99.90;;;;;;5066058;28;20186;-63
2022/10/05 09:26:52;;;;;;;7.13;5.82;;;16.70;99.90;;;;;;5062966;28;20192;-64
2022/10/05 09:29:20;;;;;;;6.15;5.18;;;16.70;99.90;;;;;;5065340;28;20048;-63
2022/10/05 09:32:29;;;;;;;8.65;5.90;;;16.70;99.90;;;;;;5055888;28;20036;-63
2022/10/05 09:35:06;;;;;;;9.43;5.90;;;16.80;99.90;;;;;;5052661;28;20072;-63
2022/10/05 09:38:16;;;;;;;7.25;4.90;;;16.80;99.90;;;;;;5057034;28;20364;-64
2022/10/05 09:41:08;;;;;;;8.40;5.00;;;16.80;99.90;;;;;;5044111;28;20053;-64
2022/10/05 09:43:57;;;;;;;6.30;4.85;;;16.70;99.90;;;;;;5057236;28;20441;-62
2022/10/05 09:46:39;;;;;;;7.30;4.95;;;16.80;99.90;;;;;;5055608;28;20480;-63
2022/10/05 09:49:23;;;;;;;7.72;4.38;;;16.80;99.90;;;;;;5057188;28;20174;-63
2022/10/05 09:52:04;;;;;;;5.78;4.57;;;16.80;99.90;;;;;;5048029;28;20134;-63
2022/10/05 09:54:50;;;;;;;6.22;4.65;;;16.70;99.90;;;;;;5055466;28;20044;-64
2022/10/05 09:57:27;;;;;;;5.05;3.88;;;16.80;99.90;;;;;;5056695;28;20368;-63
2022/10/05 09:59:53;;;;;;;6.05;4.60;;;16.80;99.90;;;;;;5067773;28;20764;-63
2022/10/05 10:02:37;;;;;;;6.82;4.53;;;16.80;99.90;;;;;;5062799;28;20044;-63
2022/10/05 10:05:25;;;;;;;6.47;4.20;;;16.90;99.90;;;;;;5070259;28;20071;-64
2022/10/05 10:07:53;;;;;;;5.13;4.00;;;16.90;99.90;;;;;;5062037;28;20052;-63
2022/10/05 10:11:01;;;;;;;5.25;4.28;;;17.10;99.90;;;;;;5069779;28;20047;-64
2022/10/05 10:14:04;;;;;;;7.30;4.75;;;17.10;99.90;;;;;;5055643;28;20325;-63
2022/10/05 10:16:49;;;;;;;5.35;4.47;;;17.20;99.90;;;;;;5066334;28;20072;-64
2022/10/05 10:19:23;;;;;;;12.52;5.50;;;17.20;99.90;;;;;;5055223;28;20055;-63
2022/10/05 10:22:07;;;;;;;7.55;4.70;;;17.10;99.90;;;;;;5057077;28;20040;-64
2022/10/05 10:25:09;;;;;;;7.68;5.00;;;17.20;99.90;;;;;;5073099;28;20092;-63
2022/10/05 10:28:17;;;;;;;5.80;5.10;;;17.10;99.90;;;;;;5072844;28;20142;-63
2022/10/05 10:30:58;;;;;;;8.77;5.70;;;17.10;99.90;;;;;;5068978;28;20044;-64
2022/10/05 10:33:52;;;;;;;6.85;5.43;;;17.10;99.90;;;;;;5072164;28;20035;-63
2022/10/05 10:36:42;;;;;;;7.88;5.10;;;17.10;99.90;;;;;;5053737;28;20515;-63
2022/10/05 10:39:32;;;;;;;6.03;5.43;;;17.10;99.90;;;;;;5057145;28;20533;-64
2022/10/05 10:42:19;;;;;;;6.75;5.05;;;17.20;99.90;;;;;;5062085;28;20056;-63
2022/10/05 10:45:11;;;;;;;7.43;5.22;;;17.10;99.90;;;;;;5066239;28;20515;-64
2022/10/05 10:47:44;;;;;;;7.40;5.10;;;17.20;99.90;;;;;;5060331;28;22252;-63
2022/10/05 10:50:28;;;;;;;5.20;4.63;;;17.20;99.90;;;;;;5059042;28;20036;-62
2022/10/05 10:53:37;;;;;;;9.07;5.65;;;17.30;99.90;;;;;;5062130;28;20091;-63
2022/10/05 10:56:12;;;;;;;7.93;4.63;;;17.20;99.90;;;;;;5070501;28;20062;-64
2022/10/05 10:59:01;;;;;;;5.40;4.90;;;17.30;99.90;;;;;;5082566;28;20047;-64
2022/10/05 11:01:58;;;;;;;5.50;4.80;;;17.30;99.90;;;;;;5058750;28;20054;-63
2022/10/05 11:04:42;;;;;;;7.28;4.72;;;17.30;99.90;;;;;;5076414;28;20054;-63
2022/10/05 11:07:28;;;;;;;5.15;4.65;;;17.30;99.90;;;;;;5090311;28;20046;-63
2022/10/05 11:10:29;;;;;;;6.18;4.43;;;17.30;99.90;;;;;;5089592;28;20044;-63
2022/10/05 11:13:32;;;;;;;7.25;4.47;;;17.30;99.90;;;;;;5087563;28;20479;-63
2022/10/05 11:16:05;;;;;;;4.60;3.88;;;17.40;99.90;;;;;;5058637;28;20044;-63
2022/10/05 11:19:05;;;;;;;5.22;4.65;;;17.40;99.90;;;;;;5067971;28;20044;-63
2022/10/05 11:21:35;;;;;;;4.95;4.20;;;17.40;99.90;;;;;;5078509;28;20051;-63
2022/10/05 11:24:13;;;;;;;9.23;4.50;;;17.50;99.90;;;;;;5086615;28;20044;-63
2022/10/05 11:26:41;;;;;;;5.00;4.43;;;17.50;99.90;;;;;;5081941;28;20142;-63
2022/10/05 11:29:22;;;;;;;4.53;4.13;;;17.60;99.90;;;;;;5068221;28;20047;-64
2022/10/05 11:32:02;;;;;;;;;;;17.60;99.90;;;;;;5085277;28;20032;-63
2022/10/05 11:34:46;;;;;;;4.68;4.28;;;17.50;99.90;;;;;;5087225;28;19991;-64
2022/10/05 11:37:30;;;;;;;5.00;4.40;;;17.60;99.90;;;;;;5069451;28;20058;-63
2022/10/05 11:40:33;;;;;;;6.13;4.30;;;17.70;99.90;;;;;;5072443;28;20043;-63
2022/10/05 11:43:31;;;;;;;5.28;3.80;;;17.60;99.90;;;;;;5079806;28;20059;-64
2022/10/05 11:46:07;;;;;;;4.13;3.75;;;17.60;99.90;;;;;;5056739;28;20135;-63
2022/10/05 11:49:03;;;;;;;4.47;3.47;;;17.60;99.90;;;;;;5089544;28;20044;-64
2022/10/05 11:51:39;;;;;;;4.63;3.13;;;17.60;99.90;;;;;;5076353;28;20079;-65
2022/10/05 11:54:20;;;;;;;5.75;3.50;;;17.60;99.90;;;;;;5087592;28;20059;-63
2022/10/05 11:56:51;;;;;;;4.82;3.13;;;17.60;99.90;;;;;;5066176;28;20063;-64
2022/10/05 11:59:33;;;;;;;9.35;3.30;;;17.50;99.90;;;;;;5090511;28;20040;-63
2022/10/05 12:02:30;;;;;;;4.05;2.90;;;17.50;99.90;;;;;;5087212;28;20039;-64
2022/10/05 12:05:19;;;;;;;5.38;3.60;;;17.40;99.90;;;;;;5086186;28;20119;-64
2022/10/05 12:08:22;;;;;;;5.30;3.22;;;17.40;99.90;;;;;;5071809;28;20040;-63
2022/10/05 12:11:04;;;;;;;3.85;3.40;;;17.30;99.90;;;;;;5086106;28;20044;-65
2022/10/05 12:13:56;;;;;;;4.97;3.25;;;17.30;99.90;;;;;;5062789;28;20043;-65
2022/10/05 12:16:57;;;;;;;3.83;3.00;;;17.30;99.90;;;;;;5068860;28;20119;-63
2022/10/05 12:19:28;;;;;;;5.72;3.47;;;17.20;99.90;;;;;;5088678;28;20044;-63
2022/10/05 12:22:20;;;;;;;5.07;4.05;;;17.20;99.90;;;;;;5061750;28;20058;-62
2022/10/05 12:25:24;;;;;;;5.70;3.83;;;17.10;99.90;;;;;;5085288;28;20100;-64
2022/10/05 12:27:53;;;;;;;5.68;3.70;;;17.10;99.90;;;;;;5081760;28;20388;-63
2022/10/05 12:30:26;;;;;;;7.75;3.90;;;17.10;99.90;;;;;;5068086;28;20120;-63
2022/10/05 12:33:35;;;;;;;5.90;4.13;;;17.10;99.90;;;;;;5080287;28;20410;-64
2022/10/05 12:36:17;;;;;;;4.38;3.45;;;17.00;99.90;;;;;;5083786;28;20116;-63
2022/10/05 12:39:03;;;;;;;5.68;4.15;;;17.10;99.90;;;;;;5083053;28;20032;-63
2022/10/05 12:41:56;;;;;;;7.10;4.13;;;17.00;99.90;;;;;;5081651;28;20129;-64
2022/10/05 12:44:54;;;;;;;5.50;3.75;;;17.00;99.90;;;;;;5068967;28;20048;-63
2022/10/05 12:48:09;;;;;;;5.50;3.47;;;17.00;99.90;;;;;;5086394;28;20135;-64
2022/10/05 12:50:41;;;;;;;4.55;3.53;;;17.10;99.90;;;;;;5086147;28;20032;-64
2022/10/05 12:53:36;;;;;;;6.13;3.70;;;17.10;99.90;;;;;;5086501;28;20039;-63
2022/10/05 12:56:09;;;;;;;4.70;3.40;;;17.10;99.90;;;;;;5072001;28;20048;-63
2022/10/05 12:59:13;;;;;;;5.90;3.53;;;17.10;99.90;;;;;;5049527;28;20053;-64
2022/10/05 13:01:52;;;;;;;5.47;3.67;;;17.10;99.90;;;;;;5029154;28;20135;-64
2022/10/05 13:04:37;;;;;;;4.65;3.72;;;17.10;99.90;;;;;;5046102;28;20166;-63
2022/10/05 13:07:21;;;;;;;8.65;4.40;;;17.20;99.90;;;;;;5026334;28;20573;-64
2022/10/05 13:10:01;;;;;;;6.13;4.07;;;17.10;99.90;;;;;;5037454;28;20086;-64
2022/10/05 13:13:01;;;;;;;4.05;3.65;;;17.10;99.90;;;;;;5043355;28;20519;-63
2022/10/05 13:15:42;;;;;;;6.18;4.63;;;17.10;99.90;;;;;;5003678;28;20498;-63
2022/10/05 13:18:25;;;;;;;5.05;4.00;;;17.20;99.90;;;;;;5035623;28;20048;-64
2022/10/05 13:21:07;;;;;;;7.15;3.38;;;17.20;99.90;;;;;;5032130;28;20097;-64
2022/10/05 13:23:57;;;;;;;4.25;3.85;;;17.30;99.90;;;;;;5043426;28;20046;-63
2022/10/05 13:26:47;;;;;;;11.63;3.80;;;17.30;99.90;;;;;;5041560;28;20583;-65
2022/10/05 13:29:25;;;;;;;5.20;3.67;;;17.40;99.90;;;;;;5054800;28;20148;-63
2022/10/05 13:31:59;;;;;;;7.50;3.85;;;17.30;99.90;;;;;;5046327;28;20045;-63
2022/10/05 13:35:06;;;;;;;6.13;3.45;;;17.40;99.90;;;;;;5048088;28;20079;-63
2022/10/05 13:37:42;;;;;;;5.25;3.90;;;17.50;99.90;;;;;;5042004;28;20398;-63
2022/10/05 13:40:20;;;;;;;4.72;3.42;;;17.60;99.90;;;;;;5041084;28;20045;-63
2022/10/05 13:42:53;;;;;;;5.63;3.20;;;17.60;99.90;;;;;;5038644;28;20032;-64
2022/10/05 13:45:22;;;;;;;4.43;3.28;;;17.70;99.90;;;;;;5051509;28;20068;-64
2022/10/05 13:48:13;;;;;;;4.03;3.00;;;17.70;99.90;;;;;;5044206;28;20041;-63
2022/10/05 13:50:58;;;;;;;7.75;3.22;;;17.70;99.90;;;;;;5041009;28;20952;-64
2022/10/05 13:53:40;;;;;;;6.43;3.05;;;17.70;99.90;;;;;;5043060;28;20124;-63
2022/10/05 13:56:24;;;;;;;3.80;2.90;;;17.80;99.90;;;;;;5060641;28;20063;-63
2022/10/05 13:59:03;;;;;;;6.22;3.42;;;17.70;99.90;;;;;;5087245;28;20052;-64
2022/10/05 14:01:40;;;;;;;10.57;3.33;;;17.70;99.90;;;;;;5089765;28;20044;-63
2022/10/05 14:04:16;;;;;;;7.25;3.20;;;17.70;99.90;;;;;;5090889;28;20427;-64
2022/10/05 14:06:42;;;;;;;3.97;3.10;;;17.80;99.90;;;;;;5085757;28;20222;-63
2022/10/05 14:09:26;;;;;;;4.85;2.85;;;17.80;99.90;;;;;;5062358;28;20086;-63
2022/10/05 14:12:13;;;;;;;5.55;3.17;;;17.80;99.90;;;;;;5079084;28;20228;-64